Time;durP1;ratioP1;P1;durP2;ratioP2;P2;SDS_P1;SDS_P2;PMS_P1;PMS_P2;Temp;Humidity;BMP_temperature;BMP_pressure;BME280_temperature;BME280_humidity;BME280_pressure;Samples;Min_cycle;Max_cycle;Signal;HPM_P1;HPM_P2
2023/09/25 00:01:02;;;;;;;3.05;0.95;;;13.10;99.90;;;;;;5005771;28;20037;-74
2023/09/25 00:03:27;;;;;;;4.40;1.30;;;13.20;99.90;;;;;;5027323;28;20124;-74
2023/09/25 00:05:55;;;;;;;3.22;1.10;;;13.10;99.90;;;;;;5026096;28;20048;-74
2023/09/25 00:08:21;;;;;;;4.18;1.35;;;13.10;99.90;;;;;;5041829;28;20033;-74
2023/09/25 00:10:47;;;;;;;2.30;1.08;;;13.10;99.90;;;;;;5027503;28;20048;-74
2023/09/25 00:13:13;;;;;;;1.52;0.85;;;13.10;99.90;;;;;;5027334;28;20050;-74
2023/09/25 00:15:46;;;;;;;2.40;1.20;;;13.20;99.90;;;;;;5027184;28;20053;-74
2023/09/25 00:18:13;;;;;;;3.40;0.93;;;13.20;99.90;;;;;;5006263;28;20155;-74
2023/09/25 00:20:40;;;;;;;3.30;0.98;;;13.10;99.90;;;;;;5027506;28;20053;-74
2023/09/25 00:23:05;;;;;;;6.60;1.20;;;13.20;99.90;;;;;;5007197;28;20052;-74
2023/09/25 00:25:31;;;;;;;2.75;1.27;;;13.10;99.90;;;;;;5023125;28;20025;-74
2023/09/25 00:27:57;;;;;;;4.35;0.93;;;13.20;99.90;;;;;;5027567;28;20094;-74
2023/09/25 00:30:23;;;;;;;3.08;1.10;;;13.20;99.90;;;;;;5026256;28;20118;-74
2023/09/25 00:32:50;;;;;;;2.85;1.30;;;13.20;99.90;;;;;;5026968;28;20535;-74
2023/09/25 00:35:20;;;;;;;3.83;1.30;;;13.20;99.90;;;;;;5025587;28;20045;-73
2023/09/25 00:37:46;;;;;;;2.17;1.30;;;13.20;99.90;;;;;;5009068;28;20041;-74
2023/09/25 00:40:17;;;;;;;3.35;1.35;;;13.20;99.90;;;;;;5025311;28;20053;-74
2023/09/25 00:42:56;;;;;;;2.83;1.00;;;13.20;99.90;;;;;;5009983;28;20041;-74
2023/09/25 00:45:22;;;;;;;3.15;1.27;;;13.20;99.90;;;;;;5023327;28;20034;-74
2023/09/25 00:47:50;;;;;;;1.75;1.25;;;13.20;99.90;;;;;;5008978;28;20127;-74
2023/09/25 00:50:17;;;;;;;2.58;1.25;;;13.20;99.90;;;;;;5009783;28;20033;-74
2023/09/25 00:52:44;;;;;;;4.10;1.25;;;13.10;99.90;;;;;;5008718;28;20049;-74
2023/09/25 00:55:12;;;;;;;2.05;1.10;;;13.10;99.90;;;;;;5037266;28;20045;-74
2023/09/25 00:57:38;;;;;;;2.60;1.08;;;13.10;99.90;;;;;;5024057;28;20037;-74
2023/09/25 01:00:09;;;;;;;2.35;1.00;;;13.20;99.90;;;;;;5006993;28;21114;-74
2023/09/25 01:02:36;;;;;;;3.20;1.20;;;13.10;99.90;;;;;;5026335;28;20049;-74
2023/09/25 01:05:03;;;;;;;3.00;1.38;;;13.10;99.90;;;;;;5008910;28;20036;-74
2023/09/25 01:07:29;;;;;;;2.47;1.10;;;13.10;99.90;;;;;;5008671;28;20038;-74
2023/09/25 01:10:10;;;;;;;2.05;1.08;;;13.10;99.90;;;;;;5040285;28;20398;-74
2023/09/25 01:12:37;;;;;;;3.25;1.65;;;13.10;99.90;;;;;;5024850;28;20050;-74
2023/09/25 01:15:06;;;;;;;2.63;1.30;;;13.10;99.90;;;;;;5038952;28;20038;-74
2023/09/25 01:17:32;;;;;;;3.30;1.45;;;13.10;99.90;;;;;;5041082;28;20700;-74
2023/09/25 01:20:00;;;;;;;6.45;1.38;;;13.10;99.90;;;;;;5025523;28;20048;-74
2023/09/25 01:22:25;;;;;;;1.85;1.05;;;13.10;99.90;;;;;;5026199;28;20033;-74
2023/09/25 01:24:51;;;;;;;2.70;1.20;;;13.10;99.90;;;;;;5006404;28;20368;-74
2023/09/25 01:27:17;;;;;;;2.60;1.20;;;13.10;99.90;;;;;;5023092;28;20478;-74
2023/09/25 01:29:43;;;;;;;3.00;1.30;;;13.10;99.90;;;;;;5025035;28;20487;-74
2023/09/25 01:32:08;;;;;;;2.92;1.23;;;13.10;99.90;;;;;;5007337;28;20107;-74
2023/09/25 01:34:34;;;;;;;3.05;1.30;;;13.10;99.90;;;;;;5025344;28;20045;-74
2023/09/25 01:37:04;;;;;;;3.78;1.30;;;13.00;99.90;;;;;;5007302;28;20075;-74
2023/09/25 01:39:31;;;;;;;3.05;1.35;;;13.00;99.90;;;;;;5039444;28;20043;-74
2023/09/25 01:41:56;;;;;;;3.30;1.25;;;13.00;99.90;;;;;;5004753;28;20042;-74
2023/09/25 01:44:23;;;;;;;3.72;1.45;;;13.00;99.90;;;;;;5023422;28;20042;-74
2023/09/25 01:46:49;;;;;;;4.95;1.25;;;13.00;99.90;;;;;;5040208;28;20045;-73
2023/09/25 01:49:15;;;;;;;2.08;0.98;;;13.00;99.90;;;;;;5024609;28;20405;-74
2023/09/25 01:51:43;;;;;;;3.40;1.23;;;13.00;99.90;;;;;;5024843;28;20132;-73
2023/09/25 01:54:09;;;;;;;5.93;1.50;;;13.00;99.90;;;;;;5027760;28;20060;-73
2023/09/25 01:56:34;;;;;;;4.30;1.45;;;12.90;99.90;;;;;;5025646;28;20510;-74
2023/09/25 01:59:00;;;;;;;2.28;1.20;;;12.90;99.90;;;;;;5027280;28;20042;-74
2023/09/25 02:01:26;;;;;;;3.30;1.50;;;12.90;99.90;;;;;;5029526;28;20060;-74
2023/09/25 02:03:51;;;;;;;3.55;1.40;;;12.90;99.90;;;;;;5012709;28;20064;-74
2023/09/25 02:06:17;;;;;;;2.30;1.17;;;12.90;99.90;;;;;;5028395;28;20049;-74
2023/09/25 02:08:42;;;;;;;4.05;1.48;;;12.90;99.90;;;;;;5024873;28;20533;-74
2023/09/25 02:11:08;;;;;;;2.97;1.33;;;12.80;99.90;;;;;;5006269;28;20510;-74
2023/09/25 02:13:34;;;;;;;2.05;1.05;;;12.90;99.90;;;;;;5023788;28;20037;-74
2023/09/25 02:15:59;;;;;;;2.28;1.30;;;12.80;99.90;;;;;;5008530;28;20520;-74
2023/09/25 02:18:25;;;;;;;3.60;1.27;;;12.80;99.90;;;;;;5024192;28;20041;-74
2023/09/25 02:20:51;;;;;;;2.65;1.35;;;12.80;99.90;;;;;;5037617;28;20048;-74
2023/09/25 02:23:17;;;;;;;2.22;1.40;;;12.80;99.90;;;;;;5008246;28;20140;-74
2023/09/25 02:25:42;;;;;;;2.47;1.45;;;12.80;99.90;;;;;;5021098;28;20261;-74
2023/09/25 02:28:08;;;;;;;2.67;1.30;;;12.80;99.90;;;;;;5024160;28;20038;-74
2023/09/25 02:30:34;;;;;;;4.97;1.40;;;12.70;99.90;;;;;;5022914;28;20515;-74
2023/09/25 02:32:59;;;;;;;3.20;1.30;;;12.70;99.90;;;;;;5023486;28;20065;-74
2023/09/25 02:35:25;;;;;;;2.65;1.20;;;12.70;99.90;;;;;;5023733;28;20033;-74
2023/09/25 02:37:51;;;;;;;4.28;1.73;;;12.70;99.90;;;;;;5024330;28;20041;-74
2023/09/25 02:40:17;;;;;;;3.08;1.13;;;12.70;99.90;;;;;;5006958;28;20030;-74
2023/09/25 02:42:44;;;;;;;3.53;1.30;;;12.70;99.90;;;;;;5041232;28;20037;-74
2023/09/25 02:45:11;;;;;;;2.28;1.02;;;12.70;99.90;;;;;;5008105;28;20095;-74
2023/09/25 02:47:36;;;;;;;3.65;1.58;;;12.70;99.90;;;;;;5004610;28;20135;-74
2023/09/25 02:50:02;;;;;;;4.50;1.85;;;12.60;99.90;;;;;;5006792;28;20037;-74
2023/09/25 02:52:28;;;;;;;2.42;1.35;;;12.60;99.90;;;;;;5024897;28;20041;-74
2023/09/25 02:54:54;;;;;;;4.47;1.40;;;12.60;99.90;;;;;;5022378;28;20037;-74
2023/09/25 02:57:19;;;;;;;2.90;1.30;;;12.60;99.90;;;;;;5023664;28;20116;-74
2023/09/25 02:59:45;;;;;;;1.55;1.00;;;12.60;99.90;;;;;;5023600;28;20045;-74
2023/09/25 03:02:10;;;;;;;4.85;1.35;;;12.60;99.90;;;;;;5022739;28;20075;-74
2023/09/25 03:04:37;;;;;;;5.05;1.85;;;12.60;99.90;;;;;;5025108;28;20544;-74
2023/09/25 03:07:03;;;;;;;4.40;1.10;;;12.60;99.90;;;;;;5023405;28;20088;-74
2023/09/25 03:09:28;;;;;;;2.75;1.30;;;12.50;99.90;;;;;;5006417;28;20057;-74
2023/09/25 03:11:54;;;;;;;3.17;1.20;;;12.50;99.90;;;;;;5005829;28;20037;-74
2023/09/25 03:14:20;;;;;;;3.08;1.50;;;12.50;99.90;;;;;;5006028;28;20041;-74
2023/09/25 03:16:46;;;;;;;2.58;1.42;;;12.50;99.90;;;;;;5022946;28;20045;-74
2023/09/25 03:19:12;;;;;;;2.95;1.40;;;12.60;99.90;;;;;;5023987;28;20185;-74
2023/09/25 03:21:40;;;;;;;3.53;1.60;;;12.50;99.90;;;;;;5004751;28;20069;-74
2023/09/25 03:24:06;;;;;;;2.63;1.38;;;12.50;99.90;;;;;;5021630;28;20040;-74
2023/09/25 03:26:32;;;;;;;2.78;1.40;;;12.50;99.90;;;;;;5023797;28;20033;-74
2023/09/25 03:28:57;;;;;;;3.53;1.50;;;12.50;99.90;;;;;;5023040;28;20041;-74
2023/09/25 03:31:23;;;;;;;7.22;1.70;;;12.50;99.90;;;;;;5022567;28;20044;-74
2023/09/25 03:33:48;;;;;;;3.03;1.50;;;12.60;99.90;;;;;;5023642;28;20121;-74
2023/09/25 03:36:14;;;;;;;3.15;1.40;;;12.60;99.90;;;;;;5024216;28;20103;-74
2023/09/25 03:38:40;;;;;;;3.63;1.50;;;12.60;99.90;;;;;;5027264;28;20046;-74
2023/09/25 03:41:05;;;;;;;3.30;1.40;;;12.50;99.90;;;;;;5026025;28;20482;-74
2023/09/25 03:43:32;;;;;;;2.80;1.42;;;12.50;99.90;;;;;;5008037;28;20041;-74
2023/09/25 03:45:58;;;;;;;2.45;1.35;;;12.50;99.90;;;;;;5025610;28;20040;-74
2023/09/25 03:48:23;;;;;;;4.32;1.50;;;12.50;99.90;;;;;;5023148;28;20068;-74
2023/09/25 03:50:49;;;;;;;2.67;1.50;;;12.50;99.90;;;;;;5009739;28;20037;-74
2023/09/25 03:53:15;;;;;;;2.08;1.33;;;12.50;99.90;;;;;;5028524;28;20527;-74
2023/09/25 03:55:41;;;;;;;4.88;1.33;;;12.50;99.90;;;;;;5026546;28;20475;-74
2023/09/25 03:58:07;;;;;;;3.25;1.40;;;12.50;99.90;;;;;;5027097;28;20503;-75
2023/09/25 04:00:32;;;;;;;4.30;1.35;;;12.50;99.90;;;;;;5025475;28;20045;-74
2023/09/25 04:02:58;;;;;;;2.65;1.42;;;12.50;99.90;;;;;;5023927;28;20067;-74
2023/09/25 04:05:24;;;;;;;3.17;1.40;;;12.50;99.90;;;;;;5025888;28;20794;-74
2023/09/25 04:07:49;;;;;;;2.40;1.40;;;12.50;99.90;;;;;;5027827;28;20057;-74
2023/09/25 04:10:15;;;;;;;1.95;1.30;;;12.50;99.90;;;;;;5010787;28;20061;-74
2023/09/25 04:12:40;;;;;;;2.78;1.38;;;12.50;99.90;;;;;;5026738;28;20038;-74
2023/09/25 04:15:13;;;;;;;3.53;1.70;;;12.50;99.90;;;;;;5024812;28;20095;-74
2023/09/25 04:17:40;;;;;;;3.47;1.60;;;12.50;99.90;;;;;;5026590;28;20169;-74
2023/09/25 04:20:15;;;;;;;2.35;1.27;;;12.50;99.90;;;;;;5023127;28;20490;-74
2023/09/25 04:22:41;;;;;;;2.53;1.30;;;12.50;99.90;;;;;;5025786;28;20045;-74
2023/09/25 04:25:10;;;;;;;3.25;1.40;;;12.50;99.90;;;;;;5008037;28;20098;-74
2023/09/25 04:27:36;;;;;;;2.60;1.17;;;12.40;99.90;;;;;;5026757;28;20111;-74
2023/09/25 04:30:03;;;;;;;2.55;1.35;;;12.40;99.90;;;;;;5026882;28;20033;-74
2023/09/25 04:32:28;;;;;;;3.15;1.35;;;12.50;99.90;;;;;;5005387;28;20049;-74
2023/09/25 04:34:54;;;;;;;3.22;1.30;;;12.50;99.90;;;;;;5019772;28;20049;-73
2023/09/25 04:37:20;;;;;;;3.40;1.50;;;12.50;99.90;;;;;;5025481;28;20064;-74
2023/09/25 04:39:46;;;;;;;3.55;1.60;;;12.50;99.90;;;;;;5008649;28;20041;-74
2023/09/25 04:42:11;;;;;;;3.15;1.70;;;12.50;99.90;;;;;;5024780;28;20052;-74
2023/09/25 04:44:37;;;;;;;3.90;1.30;;;12.40;99.90;;;;;;5025115;28;20102;-74
2023/09/25 04:47:04;;;;;;;2.25;1.20;;;12.40;99.90;;;;;;5025978;28;20037;-74
2023/09/25 04:49:30;;;;;;;4.88;1.75;;;12.40;99.90;;;;;;5025243;28;20037;-73
2023/09/25 04:51:56;;;;;;;2.65;1.30;;;12.50;99.90;;;;;;5024381;28;22095;-74
2023/09/25 04:54:22;;;;;;;3.05;1.38;;;12.40;99.90;;;;;;5026510;28;20041;-74
2023/09/25 04:56:47;;;;;;;3.33;1.40;;;12.40;99.90;;;;;;5008591;28;20053;-74
2023/09/25 04:59:13;;;;;;;3.33;1.50;;;12.40;99.90;;;;;;5026094;28;20025;-74
2023/09/25 05:01:39;;;;;;;3.20;1.30;;;12.40;99.90;;;;;;5008803;28;20517;-74
2023/09/25 05:04:05;;;;;;;2.97;1.23;;;12.40;99.90;;;;;;5024941;28;20044;-74
2023/09/25 05:06:31;;;;;;;2.50;1.30;;;12.50;99.90;;;;;;5006920;28;20499;-74
2023/09/25 05:08:56;;;;;;;3.22;1.20;;;12.40;99.90;;;;;;5027229;28;20037;-74
2023/09/25 05:11:22;;;;;;;2.50;1.30;;;12.40;99.90;;;;;;5023877;28;20091;-74
2023/09/25 05:13:49;;;;;;;3.38;1.55;;;12.40;99.90;;;;;;5007545;28;20491;-74
2023/09/25 05:16:15;;;;;;;2.85;1.48;;;12.40;99.90;;;;;;5025523;28;20029;-74
2023/09/25 05:18:41;;;;;;;2.60;1.50;;;12.40;99.90;;;;;;5010206;28;20103;-74
2023/09/25 05:21:06;;;;;;;2.70;1.30;;;12.50;99.90;;;;;;5025675;28;20057;-74
2023/09/25 05:23:32;;;;;;;3.70;1.58;;;12.40;99.90;;;;;;5025796;28;20041;-74
2023/09/25 05:26:01;;;;;;;5.40;1.50;;;12.40;99.90;;;;;;5023724;28;20101;-74
2023/09/25 05:28:26;;;;;;;5.05;1.50;;;12.40;99.90;;;;;;5025484;28;20077;-74
2023/09/25 05:30:56;;;;;;;3.60;1.30;;;12.40;99.90;;;;;;5007642;28;20064;-74
2023/09/25 05:33:22;;;;;;;3.70;1.85;;;12.40;99.90;;;;;;5025094;28;20068;-74
2023/09/25 05:35:48;;;;;;;2.97;1.55;;;12.40;99.90;;;;;;5023507;28;20038;-74
2023/09/25 05:38:14;;;;;;;2.17;1.25;;;12.40;99.90;;;;;;5025223;28;20049;-74
2023/09/25 05:40:40;;;;;;;5.10;1.70;;;12.40;99.90;;;;;;5008725;28;20029;-74
2023/09/25 05:43:05;;;;;;;2.65;1.42;;;12.40;99.90;;;;;;5025030;28;20094;-74
2023/09/25 05:45:31;;;;;;;2.30;1.20;;;12.40;99.90;;;;;;5028287;28;20129;-74
2023/09/25 05:47:57;;;;;;;2.67;1.33;;;12.50;99.90;;;;;;5027152;28;20053;-74
2023/09/25 05:50:25;;;;;;;3.20;1.30;;;12.50;99.90;;;;;;5007062;28;20071;-73
2023/09/25 05:52:50;;;;;;;2.20;1.17;;;12.50;99.90;;;;;;5023980;28;20674;-74
2023/09/25 05:55:16;;;;;;;2.65;1.50;;;12.50;99.90;;;;;;5011078;28;20038;-74
2023/09/25 05:57:42;;;;;;;2.15;1.10;;;12.50;99.90;;;;;;5029105;28;20072;-74
2023/09/25 06:00:13;;;;;;;4.00;1.35;;;12.50;99.90;;;;;;5027722;28;20048;-74
2023/09/25 06:02:40;;;;;;;4.88;1.90;;;12.50;99.90;;;;;;5011695;28;20184;-74
2023/09/25 06:05:06;;;;;;;2.67;1.40;;;12.50;99.90;;;;;;5009511;28;20048;-74
2023/09/25 06:07:33;;;;;;;4.03;1.38;;;12.50;99.90;;;;;;5024738;28;21858;-74
2023/09/25 06:09:58;;;;;;;2.25;1.20;;;12.50;99.90;;;;;;5024348;28;20092;-74
2023/09/25 06:12:24;;;;;;;4.05;1.45;;;12.60;99.90;;;;;;5026238;28;20411;-74
2023/09/25 06:14:49;;;;;;;2.13;1.00;;;12.50;99.90;;;;;;5024280;28;20060;-74
2023/09/25 06:17:15;;;;;;;2.13;1.17;;;12.50;99.90;;;;;;5023014;28;20598;-74
2023/09/25 06:19:41;;;;;;;4.05;1.67;;;12.50;99.90;;;;;;5007603;28;20083;-74
2023/09/25 06:22:07;;;;;;;2.75;1.42;;;12.60;99.90;;;;;;5022452;28;20495;-74
2023/09/25 06:24:32;;;;;;;4.20;1.60;;;12.60;99.90;;;;;;5019741;28;20033;-74
2023/09/25 06:26:59;;;;;;;3.13;1.40;;;12.60;99.90;;;;;;5024167;28;20029;-81
2023/09/25 06:29:25;;;;;;;2.63;1.45;;;12.60;99.90;;;;;;5004991;28;20045;-74
2023/09/25 06:31:50;;;;;;;3.03;1.55;;;12.70;99.90;;;;;;5005932;28;20037;-74
2023/09/25 06:34:16;;;;;;;4.07;1.38;;;12.60;99.90;;;;;;5022093;28;20495;-74
2023/09/25 06:36:41;;;;;;;4.85;1.30;;;12.70;99.90;;;;;;5024143;28;20519;-74
2023/09/25 06:39:09;;;;;;;3.75;1.48;;;12.70;99.90;;;;;;5006002;28;20496;-74
2023/09/25 06:41:39;;;;;;;5.10;1.40;;;12.70;99.90;;;;;;5020348;28;20048;-76
2023/09/25 06:44:05;;;;;;;4.45;1.45;;;12.70;99.90;;;;;;5020907;28;20052;-75
2023/09/25 06:46:32;;;;;;;4.88;1.63;;;12.80;99.90;;;;;;5035886;28;20512;-74
2023/09/25 06:48:59;;;;;;;2.60;1.20;;;12.80;99.90;;;;;;5018934;28;20045;-74
2023/09/25 06:51:26;;;;;;;4.32;1.25;;;12.80;99.90;;;;;;5020018;28;20061;-75
2023/09/25 06:53:52;;;;;;;2.15;1.10;;;12.90;99.90;;;;;;5001205;28;20061;-74
2023/09/25 06:56:17;;;;;;;8.48;1.13;;;12.90;99.90;;;;;;5024766;28;20064;-74
2023/09/25 06:58:43;;;;;;;2.72;1.88;;;12.90;99.90;;;;;;5023893;28;20087;-74
2023/09/25 07:01:09;;;;;;;2.83;1.23;;;12.90;99.90;;;;;;5021113;28;20063;-74
2023/09/25 07:03:34;;;;;;;4.60;1.13;;;13.00;99.90;;;;;;5023935;28;20411;-74
2023/09/25 07:06:00;;;;;;;4.18;1.17;;;13.00;99.90;;;;;;5005603;28;20033;-74
2023/09/25 07:08:27;;;;;;;3.65;1.17;;;13.00;99.90;;;;;;5001525;28;20045;-75
2023/09/25 07:10:53;;;;;;;2.60;1.45;;;13.10;99.90;;;;;;5005706;28;20038;-74
2023/09/25 07:13:20;;;;;;;3.72;1.60;;;13.10;99.90;;;;;;5004315;28;20064;-74
2023/09/25 07:15:47;;;;;;;3.15;1.15;;;13.20;99.90;;;;;;5003150;28;20033;-74
2023/09/25 07:18:12;;;;;;;2.20;1.08;;;13.20;99.90;;;;;;5019603;28;20044;-74
2023/09/25 07:20:38;;;;;;;3.13;1.10;;;13.20;99.90;;;;;;5023506;28;20049;-74
2023/09/25 07:23:04;;;;;;;3.38;1.10;;;13.30;99.90;;;;;;5022562;28;20037;-75
2023/09/25 07:25:29;;;;;;;1.45;0.90;;;13.30;99.90;;;;;;5021425;28;20541;-74
2023/09/25 07:27:55;;;;;;;1.60;0.90;;;13.30;99.90;;;;;;5002484;28;20046;-74
2023/09/25 07:30:21;;;;;;;1.83;1.00;;;13.40;99.90;;;;;;5022982;28;20116;-74
2023/09/25 07:32:48;;;;;;;2.40;1.00;;;13.40;99.90;;;;;;5006128;28;20124;-74
2023/09/25 07:35:15;;;;;;;3.33;1.30;;;13.50;99.90;;;;;;5020523;28;20060;-74
2023/09/25 07:37:41;;;;;;;2.13;1.00;;;13.50;99.90;;;;;;5021850;28;20056;-74
2023/09/25 07:40:11;;;;;;;4.30;1.00;;;13.60;99.90;;;;;;5018949;28;20085;-74
2023/09/25 07:42:38;;;;;;;6.88;1.33;;;13.60;99.90;;;;;;5019143;28;20201;-74
2023/09/25 07:45:06;;;;;;;1.90;1.05;;;13.60;99.90;;;;;;5018843;28;20109;-74
2023/09/25 07:47:32;;;;;;;2.55;1.20;;;13.70;99.90;;;;;;5020679;28;20069;-74
2023/09/25 07:49:58;;;;;;;1.92;0.90;;;13.70;99.90;;;;;;5023084;28;20040;-74
2023/09/25 07:52:24;;;;;;;1.80;1.00;;;13.80;99.90;;;;;;5003735;28;20041;-74
2023/09/25 07:54:51;;;;;;;1.48;0.82;;;13.80;99.90;;;;;;5021996;28;20107;-74
2023/09/25 07:57:21;;;;;;;2.53;0.90;;;13.80;99.90;;;;;;5002104;28;20045;-74
2023/09/25 07:59:48;;;;;;;2.20;0.93;;;13.80;99.90;;;;;;5005828;28;20041;-74
2023/09/25 08:02:19;;;;;;;3.00;1.00;;;13.90;99.90;;;;;;5004781;28;20109;-75
2023/09/25 08:04:46;;;;;;;2.28;1.20;;;13.80;99.90;;;;;;5025008;28;20041;-74
2023/09/25 08:07:11;;;;;;;2.95;0.95;;;14.00;99.90;;;;;;5023791;28;20294;-74
2023/09/25 08:09:38;;;;;;;1.92;1.00;;;14.00;99.90;;;;;;5004197;28;20496;-75
2023/09/25 08:12:03;;;;;;;2.70;0.98;;;14.10;99.90;;;;;;5003610;28;20045;-74
2023/09/25 08:14:29;;;;;;;3.22;1.08;;;14.10;99.90;;;;;;5017175;28;20426;-75
2023/09/25 08:16:55;;;;;;;1.98;0.85;;;14.10;99.90;;;;;;5015410;28;20041;-74
2023/09/25 08:19:22;;;;;;;3.13;0.80;;;14.20;99.90;;;;;;5018798;28;20407;-74
2023/09/25 08:21:53;;;;;;;3.33;1.05;;;14.20;99.90;;;;;;4997899;28;20516;-74
2023/09/25 08:24:19;;;;;;;2.58;1.20;;;14.30;99.90;;;;;;5002847;28;20034;-74
2023/09/25 08:26:47;;;;;;;2.60;0.90;;;14.30;99.90;;;;;;5019993;28;20099;-74
2023/09/25 08:29:14;;;;;;;3.38;1.20;;;14.40;99.90;;;;;;5033715;28;20377;-74
2023/09/25 08:31:44;;;;;;;2.85;0.95;;;14.40;99.90;;;;;;5023913;28;20080;-74
2023/09/25 08:34:10;;;;;;;2.72;0.98;;;14.50;99.90;;;;;;5019988;28;20171;-74
2023/09/25 08:36:37;;;;;;;2.17;1.02;;;14.50;99.90;;;;;;5017992;28;20049;-74
2023/09/25 08:39:03;;;;;;;3.20;1.00;;;14.50;99.90;;;;;;5037576;28;20042;-74
2023/09/25 08:41:31;;;;;;;4.55;1.23;;;14.50;99.90;;;;;;5022076;28;20072;-74
2023/09/25 08:43:56;;;;;;;2.58;1.05;;;14.60;99.90;;;;;;5006773;28;20046;-74
2023/09/25 08:46:23;;;;;;;2.67;0.90;;;14.60;99.90;;;;;;5023231;28;20048;-74
2023/09/25 08:48:56;;;;;;;2.30;0.88;;;14.60;99.90;;;;;;5006953;28;20486;-74
2023/09/25 08:51:24;;;;;;;2.53;0.90;;;14.70;99.90;;;;;;5016136;28;20049;-74
2023/09/25 08:53:51;;;;;;;2.22;0.93;;;14.70;99.90;;;;;;5020283;28;20029;-74
2023/09/25 08:56:18;;;;;;;4.05;1.10;;;14.80;99.90;;;;;;5001654;28;20119;-75
2023/09/25 08:58:44;;;;;;;2.80;1.00;;;14.80;99.90;;;;;;5020461;28;20048;-74
2023/09/25 09:01:10;;;;;;;3.38;1.13;;;14.80;99.90;;;;;;5003824;28;20038;-74
2023/09/25 09:03:36;;;;;;;4.53;1.60;;;14.90;99.90;;;;;;5036456;28;20056;-74
2023/09/25 09:06:01;;;;;;;2.22;0.95;;;14.90;99.90;;;;;;5005285;28;20048;-74
2023/09/25 09:08:31;;;;;;;1.95;0.80;;;14.90;99.90;;;;;;5017257;28;20029;-74
2023/09/25 09:10:56;;;;;;;2.95;0.95;;;15.00;99.90;;;;;;5002546;28;20037;-74
2023/09/25 09:13:22;;;;;;;2.10;0.80;;;15.00;99.90;;;;;;5019470;28;20033;-74
2023/09/25 09:15:49;;;;;;;1.73;0.93;;;15.00;99.90;;;;;;5022113;28;20524;-74
2023/09/25 09:18:24;;;;;;;2.55;1.00;;;15.10;99.90;;;;;;5026544;28;20069;-74
2023/09/25 09:20:49;;;;;;;2.83;1.00;;;15.10;99.90;;;;;;5021767;28;20674;-74
2023/09/25 09:23:15;;;;;;;3.70;1.05;;;15.20;99.90;;;;;;5035491;28;22377;-74
2023/09/25 09:25:48;;;;;;;3.00;1.27;;;15.20;99.90;;;;;;5021349;28;20032;-74
2023/09/25 09:28:13;;;;;;;3.17;1.20;;;15.20;99.90;;;;;;5019397;28;20518;-73
2023/09/25 09:30:41;;;;;;;2.65;0.90;;;15.20;99.90;;;;;;5037339;28;20029;-76
2023/09/25 09:33:10;;;;;;;2.03;0.90;;;15.20;99.90;;;;;;5037453;28;20048;-77
2023/09/25 09:35:36;;;;;;;3.22;0.98;;;15.20;99.90;;;;;;5019309;28;20410;-80
2023/09/25 09:38:04;;;;;;;3.15;0.88;;;15.20;99.90;;;;;;5021848;28;20033;-77
2023/09/25 09:40:30;;;;;;;1.88;0.73;;;15.30;99.90;;;;;;5004359;28;20041;-77
2023/09/25 09:42:57;;;;;;;2.40;0.93;;;15.30;99.90;;;;;;5003944;28;20037;-77
2023/09/25 09:45:23;;;;;;;2.30;0.77;;;15.30;99.90;;;;;;5033152;28;20049;-77
2023/09/25 09:47:50;;;;;;;2.05;0.90;;;15.30;99.90;;;;;;5015714;28;20075;-77
2023/09/25 09:50:26;;;;;;;2.42;1.00;;;15.40;99.90;;;;;;5022068;28;20038;-77
2023/09/25 09:52:53;;;;;;;1.80;0.73;;;15.40;99.90;;;;;;5023855;28;20397;-77
2023/09/25 09:55:20;;;;;;;2.22;0.95;;;15.50;99.90;;;;;;5019050;28;20069;-77
2023/09/25 09:57:47;;;;;;;2.20;0.90;;;15.50;99.90;;;;;;5021974;28;20049;-78
2023/09/25 10:00:13;;;;;;;2.55;0.90;;;15.50;99.90;;;;;;5037762;28;20047;-78
2023/09/25 10:02:41;;;;;;;2.30;0.90;;;15.60;99.90;;;;;;5021197;28;20445;-78
2023/09/25 10:05:10;;;;;;;2.03;0.90;;;15.60;99.90;;;;;;5019117;28;20072;-78
2023/09/25 10:08:03;;;;;;;2.10;0.75;;;15.70;99.90;;;;;;5037132;28;20068;-77
2023/09/25 10:10:29;;;;;;;3.63;1.10;;;15.80;99.90;;;;;;5018974;28;20048;-77
2023/09/25 10:12:57;;;;;;;1.90;0.75;;;15.90;99.90;;;;;;5014825;28;20041;-77
2023/09/25 10:15:28;;;;;;;2.58;1.00;;;15.90;99.90;;;;;;5019506;28;20064;-76
2023/09/25 10:17:54;;;;;;;3.13;1.17;;;16.00;99.90;;;;;;5020668;28;20037;-78
2023/09/25 10:20:40;;;;;;;2.47;1.33;;;16.00;99.90;;;;;;5024565;28;20029;-79
2023/09/25 10:23:06;;;;;;;2.17;0.90;;;16.10;99.90;;;;;;5033298;28;20033;-78
2023/09/25 10:25:52;;;;;;;4.47;1.20;;;16.10;99.90;;;;;;5022240;28;20518;-77
2023/09/25 10:28:38;;;;;;;1.67;0.95;;;16.10;99.90;;;;;;5005350;28;20072;-78
2023/09/25 10:31:18;;;;;;;1.73;1.00;;;16.10;99.90;;;;;;5023584;28;20083;-79
2023/09/25 10:33:59;;;;;;;3.78;1.02;;;16.20;99.90;;;;;;5024375;28;20037;-79
2023/09/25 10:37:00;;;;;;;3.80;0.75;;;16.20;99.90;;;;;;5021248;28;20226;-80
2023/09/25 10:39:29;;;;;;;3.95;1.10;;;16.20;99.90;;;;;;4981361;28;20625;-79
2023/09/25 10:42:01;;;;;;;2.95;1.05;;;16.30;99.90;;;;;;5022566;28;20120;-78
2023/09/25 10:44:28;;;;;;;2.05;0.90;;;16.30;99.90;;;;;;5024419;28;20394;-79
2023/09/25 10:46:54;;;;;;;2.47;1.02;;;16.40;99.90;;;;;;5003638;28;20500;-77
2023/09/25 10:49:19;;;;;;;4.00;1.17;;;16.40;99.90;;;;;;5019923;28;20094;-78
2023/09/25 10:51:46;;;;;;;1.98;0.80;;;16.40;99.90;;;;;;5034741;28;20046;-79
2023/09/25 10:54:12;;;;;;;2.33;1.10;;;16.40;99.90;;;;;;5018002;28;20406;-78
2023/09/25 10:56:37;;;;;;;2.35;1.20;;;16.50;99.90;;;;;;5021382;28;20041;-77
2023/09/25 10:59:04;;;;;;;4.80;1.05;;;16.50;99.90;;;;;;5017631;28;20491;-76
2023/09/25 11:01:31;;;;;;;1.67;0.63;;;16.60;99.90;;;;;;5020543;28;20370;-76
2023/09/25 11:03:59;;;;;;;2.65;1.10;;;16.60;99.90;;;;;;5024203;28;20509;-76
2023/09/25 11:06:25;;;;;;;3.22;1.35;;;16.70;99.90;;;;;;5021526;28;20037;-76
2023/09/25 11:09:18;;;;;;;2.88;1.10;;;16.70;99.90;;;;;;5005176;28;20029;-76
2023/09/25 11:11:44;;;;;;;6.55;1.20;;;16.70;99.90;;;;;;4997782;28;20045;-76
2023/09/25 11:14:11;;;;;;;2.00;1.00;;;16.80;99.90;;;;;;5007394;28;20044;-76
2023/09/25 11:16:37;;;;;;;2.03;1.13;;;16.80;99.90;;;;;;5019764;28;20041;-76
2023/09/25 11:19:12;;;;;;;3.75;1.05;;;16.80;99.90;;;;;;5004244;28;20080;-76
2023/09/25 11:21:39;;;;;;;2.78;1.15;;;16.80;99.90;;;;;;5022131;28;20060;-75
2023/09/25 11:24:09;;;;;;;2.95;0.95;;;16.80;99.90;;;;;;5007138;28;20063;-76
2023/09/25 11:26:39;;;;;;;2.53;0.93;;;16.90;99.90;;;;;;5005576;28;20223;-76
2023/09/25 11:29:11;;;;;;;3.25;1.00;;;16.90;99.90;;;;;;5018882;28;20033;-77
2023/09/25 11:31:38;;;;;;;1.98;1.05;;;16.90;99.90;;;;;;5006060;28;20034;-77
2023/09/25 11:34:07;;;;;;;3.92;1.02;;;16.90;99.90;;;;;;5022657;28;20037;-77
2023/09/25 11:36:34;;;;;;;2.30;0.80;;;17.00;99.90;;;;;;5021206;28;20037;-77
2023/09/25 11:39:00;;;;;;;5.35;0.90;;;17.00;99.90;;;;;;5023491;28;20129;-76
2023/09/25 11:41:26;;;;;;;4.50;0.90;;;17.00;99.90;;;;;;5022431;28;20191;-76
2023/09/25 11:43:52;;;;;;;2.90;0.85;;;17.10;99.90;;;;;;5022998;28;20562;-76
2023/09/25 11:46:17;;;;;;;3.05;0.98;;;17.00;99.90;;;;;;5020990;28;20160;-76
2023/09/25 11:48:43;;;;;;;4.60;1.05;;;17.00;99.90;;;;;;5022765;28;20069;-76
2023/09/25 11:51:10;;;;;;;3.05;0.90;;;17.10;99.90;;;;;;5005623;28;20033;-77
2023/09/25 11:53:35;;;;;;;4.75;0.90;;;17.10;99.90;;;;;;5020407;28;20041;-77
2023/09/25 11:56:01;;;;;;;2.35;1.05;;;17.10;99.90;;;;;;4999356;28;20041;-76
2023/09/25 11:58:30;;;;;;;2.63;1.05;;;17.20;99.90;;;;;;5028381;28;20508;-76
2023/09/25 12:00:56;;;;;;;3.15;1.10;;;17.20;99.90;;;;;;5021824;28;20049;-76
2023/09/25 12:03:21;;;;;;;2.75;1.10;;;17.20;99.90;;;;;;5023693;28;20037;-76
2023/09/25 12:05:47;;;;;;;2.53;0.90;;;17.30;99.90;;;;;;5024575;28;20048;-76
2023/09/25 12:08:13;;;;;;;2.83;1.10;;;17.30;99.90;;;;;;5023243;28;20123;-81
2023/09/25 12:10:39;;;;;;;2.67;1.05;;;17.40;99.90;;;;;;5020260;28;20041;-76
2023/09/25 12:13:06;;;;;;;2.25;1.00;;;17.40;99.90;;;;;;5002326;28;20102;-76
2023/09/25 12:15:31;;;;;;;2.28;1.00;;;17.40;99.90;;;;;;5017501;28;20033;-79
2023/09/25 12:17:57;;;;;;;2.08;0.93;;;17.40;99.90;;;;;;5018369;28;20076;-76
2023/09/25 12:20:23;;;;;;;3.83;1.00;;;17.40;99.90;;;;;;5023815;28;20126;-75
2023/09/25 12:22:52;;;;;;;3.60;0.80;;;17.50;99.90;;;;;;5026946;28;20522;-75
2023/09/25 12:25:19;;;;;;;2.40;0.77;;;17.50;99.90;;;;;;5042933;28;20534;-75
2023/09/25 12:27:45;;;;;;;1.25;0.75;;;17.50;99.90;;;;;;5013806;28;20112;-75
2023/09/25 12:30:14;;;;;;;1.95;0.82;;;17.50;99.90;;;;;;5013618;28;20041;-75
2023/09/25 12:32:40;;;;;;;1.48;0.77;;;17.60;99.90;;;;;;5029971;28;20041;-75
2023/09/25 12:35:07;;;;;;;2.80;1.00;;;17.60;99.90;;;;;;5028572;28;20077;-75
2023/09/25 12:37:33;;;;;;;3.85;0.88;;;17.70;99.90;;;;;;5028491;28;20068;-75
2023/09/25 12:39:59;;;;;;;2.40;0.93;;;17.70;99.90;;;;;;5013706;28;20049;-75
2023/09/25 12:42:25;;;;;;;2.30;0.90;;;17.70;99.90;;;;;;5013851;28;20137;-75
2023/09/25 12:44:50;;;;;;;2.67;0.80;;;17.70;99.90;;;;;;5014170;28;20029;-75
2023/09/25 12:47:17;;;;;;;2.45;0.95;;;17.70;99.90;;;;;;5029662;28;20045;-75